sensor_id;sensor_type;location;lat;lon;timestamp;temperature;humidity
65239;SHT30;51827;51.186;6.926;2022-07-26T00:00:46;22.48;58.17
65239;SHT30;51827;51.186;6.926;2022-07-26T00:01:46;22.49;58.09
65239;SHT30;51827;51.186;6.926;2022-07-26T00:02:47;22.48;58.11
65239;SHT30;51827;51.186;6.926;2022-07-26T00:03:48;22.48;58.18
65239;SHT30;51827;51.186;6.926;2022-07-26T00:04:48;22.49;58.24
65239;SHT30;51827;51.186;6.926;2022-07-26T00:05:49;22.51;58.27
65239;SHT30;51827;51.186;6.926;2022-07-26T00:06:49;22.48;58.14
65239;SHT30;51827;51.186;6.926;2022-07-26T00:07:49;22.51;57.96
65239;SHT30;51827;51.186;6.926;2022-07-26T00:08:50;22.49;58.03
65239;SHT30;51827;51.186;6.926;2022-07-26T00:09:50;22.45;58.06
65239;SHT30;51827;51.186;6.926;2022-07-26T00:10:51;22.47;58.13
65239;SHT30;51827;51.186;6.926;2022-07-26T00:11:52;22.44;58.04
65239;SHT30;51827;51.186;6.926;2022-07-26T00:12:52;22.44;58.04
65239;SHT30;51827;51.186;6.926;2022-07-26T00:13:53;22.41;58.07
65239;SHT30;51827;51.186;6.926;2022-07-26T00:14:53;22.40;58.04
65239;SHT30;51827;51.186;6.926;2022-07-26T00:15:53;22.40;57.98
65239;SHT30;51827;51.186;6.926;2022-07-26T00:16:54;22.34;58.03
65239;SHT30;51827;51.186;6.926;2022-07-26T00:17:54;22.31;58.12
65239;SHT30;51827;51.186;6.926;2022-07-26T00:18:54;22.31;58.20
65239;SHT30;51827;51.186;6.926;2022-07-26T00:19:54;22.31;58.20
65239;SHT30;51827;51.186;6.926;2022-07-26T00:20:55;22.27;58.31
65239;SHT30;51827;51.186;6.926;2022-07-26T00:21:55;22.24;58.38
65239;SHT30;51827;51.186;6.926;2022-07-26T00:22:55;22.24;58.38
65239;SHT30;51827;51.186;6.926;2022-07-26T00:23:56;22.24;58.47
65239;SHT30;51827;51.186;6.926;2022-07-26T00:24:56;22.22;58.53
65239;SHT30;51827;51.186;6.926;2022-07-26T00:25:56;22.20;58.60
65239;SHT30;51827;51.186;6.926;2022-07-26T00:26:57;22.22;58.61
65239;SHT30;51827;51.186;6.926;2022-07-26T00:27:57;22.24;58.64
65239;SHT30;51827;51.186;6.926;2022-07-26T00:28:57;22.24;58.70
65239;SHT30;51827;51.186;6.926;2022-07-26T00:29:58;22.25;58.77
65239;SHT30;51827;51.186;6.926;2022-07-26T00:30:58;22.20;58.90
65239;SHT30;51827;51.186;6.926;2022-07-26T00:31:58;22.18;58.99
65239;SHT30;51827;51.186;6.926;2022-07-26T00:32:58;22.18;59.02
65239;SHT30;51827;51.186;6.926;2022-07-26T00:33:59;22.20;59.01
65239;SHT30;51827;51.186;6.926;2022-07-26T00:34:59;22.15;59.15
65239;SHT30;51827;51.186;6.926;2022-07-26T00:36:00;22.10;59.38
65239;SHT30;51827;51.186;6.926;2022-07-26T00:37:00;22.04;59.57
65239;SHT30;51827;51.186;6.926;2022-07-26T00:38:00;22.04;59.60
65239;SHT30;51827;51.186;6.926;2022-07-26T00:39:00;22.04;59.71
65239;SHT30;51827;51.186;6.926;2022-07-26T00:40:01;22.07;59.59
65239;SHT30;51827;51.186;6.926;2022-07-26T00:41:01;22.04;59.79
65239;SHT30;51827;51.186;6.926;2022-07-26T00:42:01;22.05;59.76
65239;SHT30;51827;51.186;6.926;2022-07-26T00:43:02;22.04;59.80
65239;SHT30;51827;51.186;6.926;2022-07-26T00:44:02;22.04;59.87
65239;SHT30;51827;51.186;6.926;2022-07-26T00:45:04;22.02;59.96
65239;SHT30;51827;51.186;6.926;2022-07-26T00:46:05;22.01;59.97
65239;SHT30;51827;51.186;6.926;2022-07-26T00:47:05;21.98;60.13
65239;SHT30;51827;51.186;6.926;2022-07-26T00:48:06;21.96;60.18
65239;SHT30;51827;51.186;6.926;2022-07-26T00:49:06;21.97;60.16
65239;SHT30;51827;51.186;6.926;2022-07-26T00:50:10;21.97;60.09
65239;SHT30;51827;51.186;6.926;2022-07-26T00:51:10;21.96;60.11
65239;SHT30;51827;51.186;6.926;2022-07-26T00:52:11;22.00;60.04
65239;SHT30;51827;51.186;6.926;2022-07-26T00:53:12;22.01;59.99
65239;SHT30;51827;51.186;6.926;2022-07-26T00:54:12;22.04;59.98
65239;SHT30;51827;51.186;6.926;2022-07-26T00:55:13;22.02;59.95
65239;SHT30;51827;51.186;6.926;2022-07-26T00:56:15;21.94;60.13
65239;SHT30;51827;51.186;6.926;2022-07-26T00:57:15;21.94;60.13
65239;SHT30;51827;51.186;6.926;2022-07-26T00:58:17;21.94;60.18
65239;SHT30;51827;51.186;6.926;2022-07-26T00:59:17;21.93;60.12
65239;SHT30;51827;51.186;6.926;2022-07-26T01:00:21;21.96;60.14
65239;SHT30;51827;51.186;6.926;2022-07-26T01:01:22;21.94;60.22
65239;SHT30;51827;51.186;6.926;2022-07-26T01:02:22;21.94;60.36
65239;SHT30;51827;51.186;6.926;2022-07-26T01:03:23;21.89;60.52
65239;SHT30;51827;51.186;6.926;2022-07-26T01:04:23;21.89;60.47
65239;SHT30;51827;51.186;6.926;2022-07-26T01:05:23;21.90;60.48
65239;SHT30;51827;51.186;6.926;2022-07-26T01:06:24;21.94;60.44
65239;SHT30;51827;51.186;6.926;2022-07-26T01:07:24;21.94;60.43
65239;SHT30;51827;51.186;6.926;2022-07-26T01:08:24;21.97;60.46
65239;SHT30;51827;51.186;6.926;2022-07-26T01:09:25;21.98;60.56
65239;SHT30;51827;51.186;6.926;2022-07-26T01:10:25;22.00;60.39
65239;SHT30;51827;51.186;6.926;2022-07-26T01:11:26;22.00;60.40
65239;SHT30;51827;51.186;6.926;2022-07-26T01:12:26;21.98;60.28
65239;SHT30;51827;51.186;6.926;2022-07-26T01:13:26;22.01;60.32
65239;SHT30;51827;51.186;6.926;2022-07-26T01:14:27;22.01;60.25
65239;SHT30;51827;51.186;6.926;2022-07-26T01:15:27;21.97;60.30
65239;SHT30;51827;51.186;6.926;2022-07-26T01:16:27;21.93;60.32
65239;SHT30;51827;51.186;6.926;2022-07-26T01:17:28;21.90;60.40
65239;SHT30;51827;51.186;6.926;2022-07-26T01:18:28;21.87;60.56
65239;SHT30;51827;51.186;6.926;2022-07-26T01:19:28;21.83;60.51
65239;SHT30;51827;51.186;6.926;2022-07-26T01:20:29;21.78;60.57
65239;SHT30;51827;51.186;6.926;2022-07-26T01:21:30;21.78;60.62
65239;SHT30;51827;51.186;6.926;2022-07-26T01:22:30;21.78;60.61
65239;SHT30;51827;51.186;6.926;2022-07-26T01:23:32;21.80;60.62
65239;SHT30;51827;51.186;6.926;2022-07-26T01:24:33;21.81;60.61
65239;SHT30;51827;51.186;6.926;2022-07-26T01:25:35;21.83;60.64
65239;SHT30;51827;51.186;6.926;2022-07-26T01:26:36;21.81;60.58
65239;SHT30;51827;51.186;6.926;2022-07-26T01:27:36;21.81;60.64
65239;SHT30;51827;51.186;6.926;2022-07-26T01:28:38;21.84;60.66
65239;SHT30;51827;51.186;6.926;2022-07-26T01:29:38;21.86;60.69
65239;SHT30;51827;51.186;6.926;2022-07-26T01:30:39;21.87;60.63
65239;SHT30;51827;51.186;6.926;2022-07-26T01:31:39;21.89;60.68
65239;SHT30;51827;51.186;6.926;2022-07-26T01:32:39;21.87;60.75
65239;SHT30;51827;51.186;6.926;2022-07-26T01:33:40;21.89;60.73
65239;SHT30;51827;51.186;6.926;2022-07-26T01:34:40;21.90;60.74
65239;SHT30;51827;51.186;6.926;2022-07-26T01:35:40;21.90;60.76
65239;SHT30;51827;51.186;6.926;2022-07-26T01:36:40;21.91;60.77
65239;SHT30;51827;51.186;6.926;2022-07-26T01:37:41;21.93;60.76
65239;SHT30;51827;51.186;6.926;2022-07-26T01:38:41;21.94;60.74
65239;SHT30;51827;51.186;6.926;2022-07-26T01:39:42;21.97;60.74
65239;SHT30;51827;51.186;6.926;2022-07-26T01:40:42;21.94;60.70
65239;SHT30;51827;51.186;6.926;2022-07-26T01:41:42;21.91;60.78
65239;SHT30;51827;51.186;6.926;2022-07-26T01:42:42;21.90;60.81
65239;SHT30;51827;51.186;6.926;2022-07-26T01:43:43;21.90;60.86
65239;SHT30;51827;51.186;6.926;2022-07-26T01:44:43;21.86;61.00
65239;SHT30;51827;51.186;6.926;2022-07-26T01:45:43;21.86;60.93
65239;SHT30;51827;51.186;6.926;2022-07-26T01:46:44;21.81;60.99
65239;SHT30;51827;51.186;6.926;2022-07-26T01:47:44;21.80;61.03
65239;SHT30;51827;51.186;6.926;2022-07-26T01:48:44;21.80;61.08
65239;SHT30;51827;51.186;6.926;2022-07-26T01:49:44;21.78;61.07
65239;SHT30;51827;51.186;6.926;2022-07-26T01:50:45;21.77;61.15
65239;SHT30;51827;51.186;6.926;2022-07-26T01:51:45;21.80;61.11
65239;SHT30;51827;51.186;6.926;2022-07-26T01:52:45;21.84;61.07
65239;SHT30;51827;51.186;6.926;2022-07-26T01:53:46;21.81;61.10
65239;SHT30;51827;51.186;6.926;2022-07-26T01:54:46;21.83;61.14
65239;SHT30;51827;51.186;6.926;2022-07-26T01:55:46;21.83;61.15
65239;SHT30;51827;51.186;6.926;2022-07-26T01:56:46;21.87;61.13
65239;SHT30;51827;51.186;6.926;2022-07-26T01:57:47;21.89;61.14
65239;SHT30;51827;51.186;6.926;2022-07-26T01:58:47;21.87;61.13
65239;SHT30;51827;51.186;6.926;2022-07-26T01:59:47;21.90;61.08
65239;SHT30;51827;51.186;6.926;2022-07-26T02:00:48;21.90;61.09
65239;SHT30;51827;51.186;6.926;2022-07-26T02:01:48;21.94;61.02
65239;SHT30;51827;51.186;6.926;2022-07-26T02:02:48;21.91;61.10
65239;SHT30;51827;51.186;6.926;2022-07-26T02:03:48;21.93;61.11
65239;SHT30;51827;51.186;6.926;2022-07-26T02:04:49;21.93;61.10
65239;SHT30;51827;51.186;6.926;2022-07-26T02:05:49;21.93;61.08
65239;SHT30;51827;51.186;6.926;2022-07-26T02:06:49;21.96;60.99
65239;SHT30;51827;51.186;6.926;2022-07-26T02:07:49;21.97;61.00
65239;SHT30;51827;51.186;6.926;2022-07-26T02:08:50;21.97;60.96
65239;SHT30;51827;51.186;6.926;2022-07-26T02:09:50;21.97;61.00
65239;SHT30;51827;51.186;6.926;2022-07-26T02:10:51;21.97;61.04
65239;SHT30;51827;51.186;6.926;2022-07-26T02:11:51;21.98;61.02
65239;SHT30;51827;51.186;6.926;2022-07-26T02:12:51;22.04;61.02
65239;SHT30;51827;51.186;6.926;2022-07-26T02:13:52;22.01;61.01
65239;SHT30;51827;51.186;6.926;2022-07-26T02:14:52;22.02;60.94
65239;SHT30;51827;51.186;6.926;2022-07-26T02:15:52;22.02;60.97
65239;SHT30;51827;51.186;6.926;2022-07-26T02:16:52;22.01;60.93
65239;SHT30;51827;51.186;6.926;2022-07-26T02:17:53;22.00;60.97
65239;SHT30;51827;51.186;6.926;2022-07-26T02:18:53;21.97;60.97
65239;SHT30;51827;51.186;6.926;2022-07-26T02:19:53;21.94;61.04
65239;SHT30;51827;51.186;6.926;2022-07-26T02:20:54;21.87;61.14
65239;SHT30;51827;51.186;6.926;2022-07-26T02:21:55;21.81;61.28
65239;SHT30;51827;51.186;6.926;2022-07-26T02:22:55;21.78;61.33
65239;SHT30;51827;51.186;6.926;2022-07-26T02:23:55;21.74;61.50
65239;SHT30;51827;51.186;6.926;2022-07-26T02:24:55;21.81;61.41
65239;SHT30;51827;51.186;6.926;2022-07-26T02:25:56;21.77;61.42
65239;SHT30;51827;51.186;6.926;2022-07-26T02:26:57;21.69;61.67
65239;SHT30;51827;51.186;6.926;2022-07-26T02:27:58;21.63;61.84
65239;SHT30;51827;51.186;6.926;2022-07-26T02:28:58;21.64;61.85
65239;SHT30;51827;51.186;6.926;2022-07-26T02:29:58;21.61;61.91
65239;SHT30;51827;51.186;6.926;2022-07-26T02:30:58;21.61;61.86
65239;SHT30;51827;51.186;6.926;2022-07-26T02:31:59;21.63;61.87
65239;SHT30;51827;51.186;6.926;2022-07-26T02:32:59;21.67;61.84
65239;SHT30;51827;51.186;6.926;2022-07-26T02:33:59;21.66;61.80
65239;SHT30;51827;51.186;6.926;2022-07-26T02:35:00;21.70;61.72
65239;SHT30;51827;51.186;6.926;2022-07-26T02:36:00;21.74;61.71
65239;SHT30;51827;51.186;6.926;2022-07-26T02:37:00;21.71;61.68
65239;SHT30;51827;51.186;6.926;2022-07-26T02:38:05;21.71;61.66
65239;SHT30;51827;51.186;6.926;2022-07-26T02:39:06;21.74;61.71
65239;SHT30;51827;51.186;6.926;2022-07-26T02:40:07;21.74;61.76
65239;SHT30;51827;51.186;6.926;2022-07-26T02:41:07;21.76;61.73
65239;SHT30;51827;51.186;6.926;2022-07-26T02:42:07;21.73;61.75
65239;SHT30;51827;51.186;6.926;2022-07-26T02:43:08;21.74;61.68
65239;SHT30;51827;51.186;6.926;2022-07-26T02:44:09;21.71;61.73
65239;SHT30;51827;51.186;6.926;2022-07-26T02:45:09;21.76;61.76
65239;SHT30;51827;51.186;6.926;2022-07-26T02:46:10;21.74;61.75
65239;SHT30;51827;51.186;6.926;2022-07-26T02:47:10;21.74;61.73
65239;SHT30;51827;51.186;6.926;2022-07-26T02:48:10;21.81;61.73
65239;SHT30;51827;51.186;6.926;2022-07-26T02:49:10;21.78;61.81
65239;SHT30;51827;51.186;6.926;2022-07-26T02:50:11;21.78;61.78
65239;SHT30;51827;51.186;6.926;2022-07-26T02:51:11;21.76;61.80
65239;SHT30;51827;51.186;6.926;2022-07-26T02:52:11;21.77;61.72
65239;SHT30;51827;51.186;6.926;2022-07-26T02:53:11;21.77;61.73
65239;SHT30;51827;51.186;6.926;2022-07-26T02:54:12;21.76;61.77
65239;SHT30;51827;51.186;6.926;2022-07-26T02:55:14;21.78;61.79
65239;SHT30;51827;51.186;6.926;2022-07-26T02:56:14;21.78;61.79
65239;SHT30;51827;51.186;6.926;2022-07-26T02:57:14;21.78;61.81
65239;SHT30;51827;51.186;6.926;2022-07-26T02:58:15;21.80;61.89
65239;SHT30;51827;51.186;6.926;2022-07-26T02:59:15;21.77;61.86
65239;SHT30;51827;51.186;6.926;2022-07-26T03:00:17;21.74;61.87
65239;SHT30;51827;51.186;6.926;2022-07-26T03:01:18;21.74;61.95
65239;SHT30;51827;51.186;6.926;2022-07-26T03:02:18;21.73;61.96
65239;SHT30;51827;51.186;6.926;2022-07-26T03:03:18;21.74;62.00
65239;SHT30;51827;51.186;6.926;2022-07-26T03:04:19;21.74;62.01
65239;SHT30;51827;51.186;6.926;2022-07-26T03:05:19;21.71;62.09
65239;SHT30;51827;51.186;6.926;2022-07-26T03:06:20;21.73;62.06
65239;SHT30;51827;51.186;6.926;2022-07-26T03:07:20;21.71;62.08
65239;SHT30;51827;51.186;6.926;2022-07-26T03:08:20;21.73;62.11
65239;SHT30;51827;51.186;6.926;2022-07-26T03:09:21;21.76;62.08
65239;SHT30;51827;51.186;6.926;2022-07-26T03:10:21;21.74;62.11
65239;SHT30;51827;51.186;6.926;2022-07-26T03:11:21;21.76;62.07
65239;SHT30;51827;51.186;6.926;2022-07-26T03:12:21;21.77;62.04
65239;SHT30;51827;51.186;6.926;2022-07-26T03:13:22;21.77;62.08
65239;SHT30;51827;51.186;6.926;2022-07-26T03:14:22;21.76;62.13
65239;SHT30;51827;51.186;6.926;2022-07-26T03:15:22;21.78;62.11
65239;SHT30;51827;51.186;6.926;2022-07-26T03:16:22;21.76;62.21
65239;SHT30;51827;51.186;6.926;2022-07-26T03:17:23;21.76;62.18
65239;SHT30;51827;51.186;6.926;2022-07-26T03:18:23;21.77;62.19
65239;SHT30;51827;51.186;6.926;2022-07-26T03:19:23;21.77;62.21
65239;SHT30;51827;51.186;6.926;2022-07-26T03:20:24;21.76;62.25
65239;SHT30;51827;51.186;6.926;2022-07-26T03:21:24;21.70;62.35
65239;SHT30;51827;51.186;6.926;2022-07-26T03:22:24;21.70;62.41
65239;SHT30;51827;51.186;6.926;2022-07-26T03:23:24;21.69;62.46
65239;SHT30;51827;51.186;6.926;2022-07-26T03:24:25;21.66;62.54
65239;SHT30;51827;51.186;6.926;2022-07-26T03:25:25;21.64;62.56
65239;SHT30;51827;51.186;6.926;2022-07-26T03:26:25;21.64;62.62
65239;SHT30;51827;51.186;6.926;2022-07-26T03:27:25;21.61;62.66
65239;SHT30;51827;51.186;6.926;2022-07-26T03:28:29;21.56;62.82
65239;SHT30;51827;51.186;6.926;2022-07-26T03:29:29;21.57;62.88
65239;SHT30;51827;51.186;6.926;2022-07-26T03:30:30;21.56;62.89
65239;SHT30;51827;51.186;6.926;2022-07-26T03:31:30;21.57;62.89
65239;SHT30;51827;51.186;6.926;2022-07-26T03:32:30;21.57;62.82
65239;SHT30;51827;51.186;6.926;2022-07-26T03:33:30;21.60;63.05
65239;SHT30;51827;51.186;6.926;2022-07-26T03:34:31;21.57;63.04
65239;SHT30;51827;51.186;6.926;2022-07-26T03:35:31;21.61;62.95
65239;SHT30;51827;51.186;6.926;2022-07-26T03:36:31;21.60;62.93
65239;SHT30;51827;51.186;6.926;2022-07-26T03:37:32;21.61;62.85
65239;SHT30;51827;51.186;6.926;2022-07-26T03:38:32;21.64;62.82
65239;SHT30;51827;51.186;6.926;2022-07-26T03:39:32;21.66;62.94
65239;SHT30;51827;51.186;6.926;2022-07-26T03:40:33;21.69;62.87
65239;SHT30;51827;51.186;6.926;2022-07-26T03:41:33;21.73;62.81
65239;SHT30;51827;51.186;6.926;2022-07-26T03:42:34;21.74;62.83
65239;SHT30;51827;51.186;6.926;2022-07-26T03:43:34;21.76;62.76
65239;SHT30;51827;51.186;6.926;2022-07-26T03:44:35;21.78;62.71
65239;SHT30;51827;51.186;6.926;2022-07-26T03:45:35;21.78;62.63
65239;SHT30;51827;51.186;6.926;2022-07-26T03:46:35;21.83;62.56
65239;SHT30;51827;51.186;6.926;2022-07-26T03:47:36;21.87;62.50
65239;SHT30;51827;51.186;6.926;2022-07-26T03:48:36;21.87;62.42
65239;SHT30;51827;51.186;6.926;2022-07-26T03:49:36;21.90;62.33
65239;SHT30;51827;51.186;6.926;2022-07-26T03:50:36;21.94;62.28
65239;SHT30;51827;51.186;6.926;2022-07-26T03:51:37;21.96;62.15
65239;SHT30;51827;51.186;6.926;2022-07-26T03:52:37;21.97;62.13
65239;SHT30;51827;51.186;6.926;2022-07-26T03:53:37;21.98;62.03
65239;SHT30;51827;51.186;6.926;2022-07-26T03:54:37;22.01;61.93
65239;SHT30;51827;51.186;6.926;2022-07-26T03:55:38;22.05;61.86
65239;SHT30;51827;51.186;6.926;2022-07-26T03:56:39;22.04;61.77
65239;SHT30;51827;51.186;6.926;2022-07-26T03:57:39;22.05;61.75
65239;SHT30;51827;51.186;6.926;2022-07-26T03:58:39;22.10;61.68
65239;SHT30;51827;51.186;6.926;2022-07-26T03:59:39;22.10;61.70
65239;SHT30;51827;51.186;6.926;2022-07-26T04:00:40;22.14;61.60
65239;SHT30;51827;51.186;6.926;2022-07-26T04:01:41;22.12;61.59
65239;SHT30;51827;51.186;6.926;2022-07-26T04:02:41;22.14;61.51
65239;SHT30;51827;51.186;6.926;2022-07-26T04:03:41;22.14;61.49
65239;SHT30;51827;51.186;6.926;2022-07-26T04:04:42;22.14;61.45
65239;SHT30;51827;51.186;6.926;2022-07-26T04:05:42;22.15;61.39
65239;SHT30;51827;51.186;6.926;2022-07-26T04:06:45;22.17;61.37
65239;SHT30;51827;51.186;6.926;2022-07-26T04:07:45;22.18;61.35
65239;SHT30;51827;51.186;6.926;2022-07-26T04:08:46;22.21;61.33
65239;SHT30;51827;51.186;6.926;2022-07-26T04:09:46;22.20;61.28
65239;SHT30;51827;51.186;6.926;2022-07-26T04:10:47;22.18;61.31
65239;SHT30;51827;51.186;6.926;2022-07-26T04:11:47;22.21;61.27
65239;SHT30;51827;51.186;6.926;2022-07-26T04:12:48;22.24;61.20
65239;SHT30;51827;51.186;6.926;2022-07-26T04:13:49;22.22;61.21
65239;SHT30;51827;51.186;6.926;2022-07-26T04:14:49;22.22;61.19
65239;SHT30;51827;51.186;6.926;2022-07-26T04:15:49;22.22;61.20
65239;SHT30;51827;51.186;6.926;2022-07-26T04:16:50;22.27;61.14
65239;SHT30;51827;51.186;6.926;2022-07-26T04:17:50;22.24;61.16
65239;SHT30;51827;51.186;6.926;2022-07-26T04:18:50;22.24;61.10
65239;SHT30;51827;51.186;6.926;2022-07-26T04:19:51;22.28;61.08
65239;SHT30;51827;51.186;6.926;2022-07-26T04:20:51;22.28;61.07
65239;SHT30;51827;51.186;6.926;2022-07-26T04:21:52;22.28;61.03
65239;SHT30;51827;51.186;6.926;2022-07-26T04:22:52;22.31;61.00
65239;SHT30;51827;51.186;6.926;2022-07-26T04:23:52;22.30;60.99
65239;SHT30;51827;51.186;6.926;2022-07-26T04:24:53;22.31;60.98
65239;SHT30;51827;51.186;6.926;2022-07-26T04:25:53;22.32;60.96
65239;SHT30;51827;51.186;6.926;2022-07-26T04:26:53;22.32;60.94
65239;SHT30;51827;51.186;6.926;2022-07-26T04:27:53;22.32;60.94
65239;SHT30;51827;51.186;6.926;2022-07-26T04:28:54;22.30;60.90
65239;SHT30;51827;51.186;6.926;2022-07-26T04:29:54;22.34;60.90
65239;SHT30;51827;51.186;6.926;2022-07-26T04:30:56;22.34;60.90
65239;SHT30;51827;51.186;6.926;2022-07-26T04:31:56;22.35;60.89
65239;SHT30;51827;51.186;6.926;2022-07-26T04:32:56;22.35;60.84
65239;SHT30;51827;51.186;6.926;2022-07-26T04:33:57;22.34;60.82
65239;SHT30;51827;51.186;6.926;2022-07-26T04:34:57;22.41;60.86
65239;SHT30;51827;51.186;6.926;2022-07-26T04:35:58;22.38;60.84
65239;SHT30;51827;51.186;6.926;2022-07-26T04:36:58;22.38;60.80
65239;SHT30;51827;51.186;6.926;2022-07-26T04:37:59;22.37;60.79
65239;SHT30;51827;51.186;6.926;2022-07-26T04:38:59;22.38;60.78
65239;SHT30;51827;51.186;6.926;2022-07-26T04:39:59;22.37;60.74
65239;SHT30;51827;51.186;6.926;2022-07-26T04:40:59;22.40;60.73
65239;SHT30;51827;51.186;6.926;2022-07-26T04:42:00;22.40;60.74
65239;SHT30;51827;51.186;6.926;2022-07-26T04:43:00;22.40;60.79
65239;SHT30;51827;51.186;6.926;2022-07-26T04:44:01;22.42;60.74
65239;SHT30;51827;51.186;6.926;2022-07-26T04:45:03;22.41;60.74
65239;SHT30;51827;51.186;6.926;2022-07-26T04:46:04;22.40;60.71
65239;SHT30;51827;51.186;6.926;2022-07-26T04:47:05;22.42;60.70
65239;SHT30;51827;51.186;6.926;2022-07-26T04:48:05;22.42;60.68
65239;SHT30;51827;51.186;6.926;2022-07-26T04:49:06;22.42;60.65
65239;SHT30;51827;51.186;6.926;2022-07-26T04:50:06;22.45;60.65
65239;SHT30;51827;51.186;6.926;2022-07-26T04:51:06;22.44;60.64
65239;SHT30;51827;51.186;6.926;2022-07-26T04:52:07;22.45;60.64
65239;SHT30;51827;51.186;6.926;2022-07-26T04:53:07;22.47;60.65
65239;SHT30;51827;51.186;6.926;2022-07-26T04:54:07;22.42;60.64
65239;SHT30;51827;51.186;6.926;2022-07-26T04:55:08;22.45;60.62
65239;SHT30;51827;51.186;6.926;2022-07-26T04:56:09;22.45;60.63
65239;SHT30;51827;51.186;6.926;2022-07-26T04:57:09;22.45;60.61
65239;SHT30;51827;51.186;6.926;2022-07-26T04:58:09;22.47;60.63
65239;SHT30;51827;51.186;6.926;2022-07-26T04:59:10;22.45;60.60
65239;SHT30;51827;51.186;6.926;2022-07-26T05:00:12;22.48;60.59
65239;SHT30;51827;51.186;6.926;2022-07-26T05:01:12;22.47;60.65
65239;SHT30;51827;51.186;6.926;2022-07-26T05:02:12;22.48;60.61
65239;SHT30;51827;51.186;6.926;2022-07-26T05:03:13;22.48;60.59
65239;SHT30;51827;51.186;6.926;2022-07-26T05:04:13;22.48;60.60
65239;SHT30;51827;51.186;6.926;2022-07-26T05:05:13;22.49;60.59
65239;SHT30;51827;51.186;6.926;2022-07-26T05:06:14;22.48;60.60
65239;SHT30;51827;51.186;6.926;2022-07-26T05:07:14;22.49;60.62
65239;SHT30;51827;51.186;6.926;2022-07-26T05:08:14;22.49;60.57
65239;SHT30;51827;51.186;6.926;2022-07-26T05:09:15;22.51;60.61
65239;SHT30;51827;51.186;6.926;2022-07-26T05:10:16;22.48;60.59
65239;SHT30;51827;51.186;6.926;2022-07-26T05:11:17;22.49;60.63
65239;SHT30;51827;51.186;6.926;2022-07-26T05:12:17;22.51;60.63
65239;SHT30;51827;51.186;6.926;2022-07-26T05:13:17;22.51;60.62
65239;SHT30;51827;51.186;6.926;2022-07-26T05:14:17;22.51;60.64
65239;SHT30;51827;51.186;6.926;2022-07-26T05:15:18;22.52;60.63
65239;SHT30;51827;51.186;6.926;2022-07-26T05:16:18;22.52;60.63
65239;SHT30;51827;51.186;6.926;2022-07-26T05:17:18;22.52;60.66
65239;SHT30;51827;51.186;6.926;2022-07-26T05:18:18;22.52;60.62
65239;SHT30;51827;51.186;6.926;2022-07-26T05:19:19;22.55;60.64
65239;SHT30;51827;51.186;6.926;2022-07-26T05:20:19;22.56;60.60
65239;SHT30;51827;51.186;6.926;2022-07-26T05:21:19;22.54;60.67
65239;SHT30;51827;51.186;6.926;2022-07-26T05:22:19;22.54;60.60
65239;SHT30;51827;51.186;6.926;2022-07-26T05:23:20;22.54;60.65
65239;SHT30;51827;51.186;6.926;2022-07-26T05:24:20;22.54;60.66
65239;SHT30;51827;51.186;6.926;2022-07-26T05:25:20;22.54;60.65
65239;SHT30;51827;51.186;6.926;2022-07-26T05:26:20;22.52;60.67
65239;SHT30;51827;51.186;6.926;2022-07-26T05:27:21;22.54;60.68
65239;SHT30;51827;51.186;6.926;2022-07-26T05:28:21;22.55;60.68
65239;SHT30;51827;51.186;6.926;2022-07-26T05:29:21;22.54;60.65
65239;SHT30;51827;51.186;6.926;2022-07-26T05:30:21;22.55;60.68
65239;SHT30;51827;51.186;6.926;2022-07-26T05:31:22;22.58;60.67
65239;SHT30;51827;51.186;6.926;2022-07-26T05:32:22;22.54;60.72
65239;SHT30;51827;51.186;6.926;2022-07-26T05:33:23;22.58;60.69
65239;SHT30;51827;51.186;6.926;2022-07-26T05:34:23;22.56;60.64
65239;SHT30;51827;51.186;6.926;2022-07-26T05:35:23;22.56;60.70
65239;SHT30;51827;51.186;6.926;2022-07-26T05:36:23;22.56;60.65
65239;SHT30;51827;51.186;6.926;2022-07-26T05:37:24;22.58;60.67
65239;SHT30;51827;51.186;6.926;2022-07-26T05:38:24;22.59;60.68
65239;SHT30;51827;51.186;6.926;2022-07-26T05:39:24;22.56;60.66
65239;SHT30;51827;51.186;6.926;2022-07-26T05:40:24;22.59;60.64
65239;SHT30;51827;51.186;6.926;2022-07-26T05:41:25;22.56;60.64
65239;SHT30;51827;51.186;6.926;2022-07-26T05:42:25;22.58;60.70
65239;SHT30;51827;51.186;6.926;2022-07-26T05:43:25;22.58;60.63
65239;SHT30;51827;51.186;6.926;2022-07-26T05:44:26;22.61;60.62
65239;SHT30;51827;51.186;6.926;2022-07-26T05:45:26;22.59;60.60
65239;SHT30;51827;51.186;6.926;2022-07-26T05:46:26;22.59;60.59
65239;SHT30;51827;51.186;6.926;2022-07-26T05:47:26;22.61;60.59
65239;SHT30;51827;51.186;6.926;2022-07-26T05:48:27;22.62;60.60
65239;SHT30;51827;51.186;6.926;2022-07-26T05:49:27;22.58;60.62
65239;SHT30;51827;51.186;6.926;2022-07-26T05:50:27;22.61;60.58
65239;SHT30;51827;51.186;6.926;2022-07-26T05:51:27;22.59;60.59
65239;SHT30;51827;51.186;6.926;2022-07-26T05:52:28;22.61;60.60
65239;SHT30;51827;51.186;6.926;2022-07-26T05:53:28;22.65;60.55
65239;SHT30;51827;51.186;6.926;2022-07-26T05:54:28;22.62;60.55
65239;SHT30;51827;51.186;6.926;2022-07-26T05:55:29;22.62;60.55
65239;SHT30;51827;51.186;6.926;2022-07-26T05:56:29;22.64;60.56
65239;SHT30;51827;51.186;6.926;2022-07-26T05:57:29;22.64;60.60
65239;SHT30;51827;51.186;6.926;2022-07-26T05:58:30;22.64;60.61
65239;SHT30;51827;51.186;6.926;2022-07-26T05:59:31;22.65;60.57
65239;SHT30;51827;51.186;6.926;2022-07-26T06:00:33;22.64;60.60
65239;SHT30;51827;51.186;6.926;2022-07-26T06:01:34;22.61;60.57
65239;SHT30;51827;51.186;6.926;2022-07-26T06:02:34;22.64;60.54
65239;SHT30;51827;51.186;6.926;2022-07-26T06:03:34;22.65;60.51
65239;SHT30;51827;51.186;6.926;2022-07-26T06:04:35;22.64;60.56
65239;SHT30;51827;51.186;6.926;2022-07-26T06:05:35;22.66;60.55
65239;SHT30;51827;51.186;6.926;2022-07-26T06:06:35;22.65;60.57
65239;SHT30;51827;51.186;6.926;2022-07-26T06:07:35;22.64;60.54
65239;SHT30;51827;51.186;6.926;2022-07-26T06:08:36;22.65;60.53
65239;SHT30;51827;51.186;6.926;2022-07-26T06:09:36;22.66;60.53
65239;SHT30;51827;51.186;6.926;2022-07-26T06:10:37;22.64;60.52
65239;SHT30;51827;51.186;6.926;2022-07-26T06:11:37;22.65;60.51
65239;SHT30;51827;51.186;6.926;2022-07-26T06:12:37;22.65;60.52
65239;SHT30;51827;51.186;6.926;2022-07-26T06:13:37;22.66;60.51
65239;SHT30;51827;51.186;6.926;2022-07-26T06:14:38;22.66;60.46
65239;SHT30;51827;51.186;6.926;2022-07-26T06:15:38;22.66;60.52
65239;SHT30;51827;51.186;6.926;2022-07-26T06:16:38;22.68;60.53
65239;SHT30;51827;51.186;6.926;2022-07-26T06:17:40;22.65;60.49
65239;SHT30;51827;51.186;6.926;2022-07-26T06:18:40;22.68;60.45
65239;SHT30;51827;51.186;6.926;2022-07-26T06:19:40;22.66;60.51
65239;SHT30;51827;51.186;6.926;2022-07-26T06:20:42;22.66;60.51
65239;SHT30;51827;51.186;6.926;2022-07-26T06:21:43;22.68;60.50